Time;durP1;ratioP1;P1;durP2;ratioP2;P2;SDS_P1;SDS_P2;PMS_P1;PMS_P2;Temp;Humidity;BMP_temperature;BMP_pressure;BME280_temperature;BME280_humidity;BME280_pressure;Samples;Min_cycle;Max_cycle;Signal;HPM_P1;HPM_P2
2023/08/31 00:01:24;;;;;;;7.38;4.40;;;17.40;99.90;;;;;;4963512;28;20051;-79
2023/08/31 00:03:51;;;;;;;8.05;3.97;;;17.30;99.90;;;;;;4958354;28;20069;-79
2023/08/31 00:06:18;;;;;;;7.10;3.47;;;17.30;99.90;;;;;;4961994;28;20582;-79
2023/08/31 00:08:45;;;;;;;8.63;4.05;;;17.30;99.90;;;;;;4956964;28;20049;-79
2023/08/31 00:11:12;;;;;;;7.57;3.60;;;17.30;99.90;;;;;;4966292;28;20051;-79
2023/08/31 00:13:39;;;;;;;8.65;3.97;;;17.30;99.90;;;;;;4953832;28;20058;-78
2023/08/31 00:16:09;;;;;;;7.97;4.18;;;17.30;99.90;;;;;;4964126;28;20578;-79
2023/08/31 00:18:36;;;;;;;7.53;4.15;;;17.30;99.90;;;;;;4961110;28;20109;-79
2023/08/31 00:21:04;;;;;;;8.00;4.47;;;17.30;99.90;;;;;;4956977;28;20406;-79
2023/08/31 00:23:31;;;;;;;6.43;3.60;;;17.30;99.90;;;;;;4973493;28;20054;-79
2023/08/31 00:26:01;;;;;;;7.80;4.07;;;17.20;99.90;;;;;;4975178;28;20067;-79
2023/08/31 00:28:29;;;;;;;6.63;3.45;;;17.30;99.90;;;;;;4957983;28;20055;-78
2023/08/31 00:30:57;;;;;;;6.25;3.95;;;17.20;99.90;;;;;;4959221;28;20444;-79
2023/08/31 00:33:26;;;;;;;7.10;3.83;;;17.20;99.90;;;;;;4962636;28;20070;-79
2023/08/31 00:35:56;;;;;;;9.63;4.10;;;17.10;99.90;;;;;;4965243;28;20055;-76
2023/08/31 00:38:23;;;;;;;7.60;4.03;;;17.20;99.90;;;;;;4967622;28;20061;-79
2023/08/31 00:40:50;;;;;;;8.80;4.43;;;17.10;99.90;;;;;;4974128;28;20491;-79
2023/08/31 00:43:20;;;;;;;7.20;4.05;;;17.20;99.90;;;;;;4968523;28;20054;-79
2023/08/31 00:45:50;;;;;;;7.90;3.83;;;17.10;99.90;;;;;;4965944;28;20047;-79
2023/08/31 00:48:18;;;;;;;7.60;4.10;;;17.20;99.90;;;;;;4963657;28;20502;-79
2023/08/31 00:50:46;;;;;;;9.25;4.07;;;17.10;99.90;;;;;;4969149;28;20431;-79
2023/08/31 00:53:15;;;;;;;7.53;3.80;;;17.10;99.90;;;;;;4976233;28;20042;-79
2023/08/31 00:55:44;;;;;;;7.13;4.43;;;17.20;99.90;;;;;;4959285;28;20105;-79
2023/08/31 00:58:12;;;;;;;9.13;4.32;;;17.20;99.90;;;;;;4975599;28;20052;-79
2023/08/31 01:01:00;;;;;;;8.65;4.10;;;17.20;99.90;;;;;;4959303;28;20498;-79
2023/08/31 01:03:47;;;;;;;8.40;4.22;;;17.20;99.90;;;;;;4965246;28;20045;-79
2023/08/31 01:06:31;;;;;;;7.70;4.10;;;17.20;99.90;;;;;;4971931;28;20055;-79
2023/08/31 01:09:14;;;;;;;7.28;3.72;;;17.20;99.90;;;;;;4960972;28;20042;-78
2023/08/31 01:12:06;;;;;;;8.35;4.50;;;17.20;99.90;;;;;;4963517;28;20062;-79
2023/08/31 01:14:59;;;;;;;8.20;4.13;;;17.20;99.90;;;;;;4955431;28;20051;-79
2023/08/31 01:17:29;;;;;;;8.63;4.20;;;17.20;99.90;;;;;;4941391;28;20134;-79
2023/08/31 01:20:00;;;;;;;7.03;3.60;;;17.20;99.90;;;;;;4963441;28;20124;-79
2023/08/31 01:22:30;;;;;;;7.65;4.45;;;17.20;99.90;;;;;;4959113;28;20566;-79
2023/08/31 01:25:03;;;;;;;7.53;4.13;;;17.20;99.90;;;;;;4958782;28;20463;-79
2023/08/31 01:27:32;;;;;;;8.23;4.57;;;17.20;99.90;;;;;;4961909;28;20046;-78
2023/08/31 01:29:59;;;;;;;6.22;3.53;;;17.20;99.90;;;;;;4963428;28;20082;-79
2023/08/31 01:32:27;;;;;;;6.30;3.55;;;17.20;99.90;;;;;;4960735;28;20054;-79
2023/08/31 01:34:54;;;;;;;8.27;4.28;;;17.20;99.90;;;;;;4957199;28;20043;-79
2023/08/31 01:37:45;;;;;;;8.23;4.63;;;17.10;99.90;;;;;;4956342;28;20072;-79
2023/08/31 01:40:25;;;;;;;8.05;3.80;;;17.10;99.90;;;;;;4950310;28;20061;-79
2023/08/31 01:42:54;;;;;;;7.65;3.95;;;17.10;99.90;;;;;;4957731;28;20056;-79
2023/08/31 01:45:22;;;;;;;7.63;3.95;;;17.10;99.90;;;;;;4956651;28;20565;-79
2023/08/31 01:47:49;;;;;;;6.78;3.17;;;17.10;99.90;;;;;;4958982;28;20475;-79
2023/08/31 01:50:18;;;;;;;5.82;3.75;;;17.00;99.90;;;;;;4977477;28;20055;-79
2023/08/31 01:52:45;;;;;;;6.85;3.58;;;17.10;99.90;;;;;;4959430;28;20533;-78
2023/08/31 01:55:15;;;;;;;6.53;3.33;;;17.10;99.90;;;;;;4975380;28;20063;-79
2023/08/31 01:57:43;;;;;;;9.05;4.22;;;17.10;99.90;;;;;;4948936;28;20078;-78
2023/08/31 02:00:18;;;;;;;8.35;4.43;;;17.10;99.90;;;;;;4959376;28;20051;-78
2023/08/31 02:02:48;;;;;;;6.57;3.97;;;17.10;99.90;;;;;;4957149;28;20051;-78
2023/08/31 02:05:16;;;;;;;7.70;4.13;;;17.10;99.90;;;;;;4964439;28;20054;-79
2023/08/31 02:07:43;;;;;;;6.60;3.80;;;17.10;99.90;;;;;;4956686;28;20082;-79
2023/08/31 02:10:10;;;;;;;7.05;4.05;;;17.10;99.90;;;;;;4975084;28;20055;-79
2023/08/31 02:12:37;;;;;;;7.70;3.53;;;17.10;99.90;;;;;;4959255;28;20129;-79
2023/08/31 02:15:06;;;;;;;6.57;3.70;;;17.10;99.90;;;;;;4961381;28;20141;-78
2023/08/31 02:17:36;;;;;;;7.60;4.10;;;17.10;99.90;;;;;;4977151;28;20053;-79
2023/08/31 02:20:06;;;;;;;5.47;3.58;;;17.10;99.90;;;;;;4963090;28;20043;-79
2023/08/31 02:22:35;;;;;;;8.05;4.22;;;17.10;99.90;;;;;;4966754;28;20046;-79
2023/08/31 02:25:02;;;;;;;6.55;3.33;;;17.00;99.90;;;;;;4961065;28;20047;-78
2023/08/31 02:27:30;;;;;;;6.05;3.60;;;17.10;99.90;;;;;;4980287;28;20410;-79
2023/08/31 02:29:57;;;;;;;7.30;3.50;;;17.00;99.90;;;;;;4964980;28;20513;-79
2023/08/31 02:32:24;;;;;;;5.40;3.22;;;17.00;99.90;;;;;;4970992;28;20137;-79
2023/08/31 02:34:51;;;;;;;5.88;3.13;;;17.00;99.90;;;;;;4965737;28;20047;-78
2023/08/31 02:37:18;;;;;;;6.35;3.90;;;17.10;99.90;;;;;;4957992;28;20556;-79
2023/08/31 02:39:46;;;;;;;5.35;3.20;;;17.00;99.90;;;;;;4952811;28;20149;-79
2023/08/31 02:42:14;;;;;;;5.60;3.47;;;17.00;99.90;;;;;;4963476;28;20053;-79
2023/08/31 02:44:41;;;;;;;6.63;3.50;;;17.00;99.90;;;;;;4958059;28;20130;-79
2023/08/31 02:47:08;;;;;;;6.10;3.15;;;17.00;99.90;;;;;;4974379;28;20055;-79
2023/08/31 02:49:35;;;;;;;6.57;3.55;;;17.00;99.90;;;;;;4957962;28;20043;-79
2023/08/31 02:52:03;;;;;;;6.28;3.50;;;17.00;99.90;;;;;;4969507;28;20078;-80
2023/08/31 02:54:30;;;;;;;6.20;3.55;;;17.00;99.90;;;;;;4958047;28;20078;-79
2023/08/31 02:56:57;;;;;;;4.70;3.17;;;17.00;99.90;;;;;;4958181;28;20067;-79
2023/08/31 02:59:25;;;;;;;5.20;3.10;;;17.00;99.90;;;;;;4973956;28;20054;-79
2023/08/31 03:01:52;;;;;;;8.30;3.80;;;17.00;99.90;;;;;;4955113;28;22648;-79
2023/08/31 03:04:19;;;;;;;9.32;3.53;;;17.00;99.90;;;;;;4956758;28;20143;-80
2023/08/31 03:06:47;;;;;;;7.03;3.47;;;16.90;99.90;;;;;;4959531;28;20061;-79
2023/08/31 03:09:14;;;;;;;7.20;4.38;;;16.90;99.90;;;;;;4962620;28;20055;-79
2023/08/31 03:11:41;;;;;;;7.45;3.47;;;16.90;99.90;;;;;;4955077;28;20054;-79
2023/08/31 03:14:09;;;;;;;6.18;3.90;;;16.90;99.90;;;;;;4962827;28;20191;-79
2023/08/31 03:16:37;;;;;;;7.10;4.10;;;16.90;99.90;;;;;;4957263;28;20050;-79
2023/08/31 03:19:05;;;;;;;9.23;3.75;;;16.80;99.90;;;;;;4961621;28;20046;-79
2023/08/31 03:21:32;;;;;;;6.13;3.72;;;16.90;99.90;;;;;;4965528;28;20043;-79
2023/08/31 03:24:00;;;;;;;6.82;3.28;;;16.90;99.90;;;;;;4960597;28;20043;-79
2023/08/31 03:26:27;;;;;;;6.05;3.55;;;16.90;99.90;;;;;;4961777;28;20074;-79
2023/08/31 03:28:54;;;;;;;7.47;4.40;;;16.80;99.90;;;;;;4959123;28;20047;-79
2023/08/31 03:31:22;;;;;;;6.85;4.15;;;16.80;99.90;;;;;;4964420;28;20062;-78
2023/08/31 03:33:50;;;;;;;6.72;3.70;;;16.70;99.90;;;;;;4969833;28;20077;-79
2023/08/31 03:36:17;;;;;;;6.75;4.50;;;16.70;99.90;;;;;;4974605;28;20047;-79
2023/08/31 03:38:44;;;;;;;7.75;3.65;;;16.70;99.90;;;;;;4965494;28;20054;-79
2023/08/31 03:41:12;;;;;;;6.88;3.83;;;16.70;99.90;;;;;;4953011;28;20537;-79
2023/08/31 03:43:39;;;;;;;9.57;4.40;;;16.70;99.90;;;;;;4958754;28;20505;-79
2023/08/31 03:46:07;;;;;;;6.15;3.45;;;16.70;99.90;;;;;;4961126;28;20125;-79
2023/08/31 03:48:34;;;;;;;5.63;3.70;;;16.70;99.90;;;;;;4960016;28;20102;-79
2023/08/31 03:51:01;;;;;;;6.95;3.67;;;16.70;99.90;;;;;;4951176;28;20565;-78
2023/08/31 03:53:28;;;;;;;7.80;3.80;;;16.70;99.90;;;;;;4974970;28;20138;-78
2023/08/31 03:55:57;;;;;;;6.63;3.63;;;16.70;99.90;;;;;;4952110;28;20504;-78
2023/08/31 03:58:25;;;;;;;8.48;3.50;;;16.70;99.90;;;;;;4976578;28;20051;-78
2023/08/31 04:00:54;;;;;;;6.13;3.40;;;16.70;99.90;;;;;;4960884;28;20058;-78
2023/08/31 04:03:21;;;;;;;8.52;3.92;;;16.70;99.90;;;;;;4950371;28;20051;-79
2023/08/31 04:05:54;;;;;;;6.90;4.18;;;16.70;99.90;;;;;;4963348;28;20049;-78
2023/08/31 04:08:21;;;;;;;8.13;3.90;;;16.70;99.90;;;;;;4966728;28;20106;-79
2023/08/31 04:10:48;;;;;;;8.65;3.75;;;16.70;99.90;;;;;;4966476;28;20066;-78
2023/08/31 04:13:15;;;;;;;6.40;3.40;;;16.70;99.90;;;;;;4962986;28;20138;-79
2023/08/31 04:15:42;;;;;;;6.97;3.70;;;16.70;99.90;;;;;;4959788;28;21008;-79
2023/08/31 04:18:10;;;;;;;5.65;3.17;;;16.70;99.90;;;;;;4964452;28;20106;-79
2023/08/31 04:20:39;;;;;;;8.80;3.42;;;16.70;99.90;;;;;;4946704;28;20071;-78
2023/08/31 04:23:06;;;;;;;7.03;3.53;;;16.80;99.90;;;;;;4992521;28;20039;-78
2023/08/31 04:25:33;;;;;;;5.93;3.40;;;16.70;99.90;;;;;;4961934;28;20121;-78
2023/08/31 04:28:00;;;;;;;6.95;3.88;;;16.70;99.90;;;;;;4979113;28;20059;-78
2023/08/31 04:30:27;;;;;;;12.35;4.88;;;16.70;99.90;;;;;;4964044;28;20098;-78
2023/08/31 04:32:54;;;;;;;6.40;3.65;;;16.70;99.90;;;;;;4953558;28;20708;-78
2023/08/31 04:35:21;;;;;;;7.50;4.15;;;16.80;99.90;;;;;;4955123;28;20058;-79
2023/08/31 04:37:48;;;;;;;6.63;3.90;;;16.80;99.90;;;;;;4977166;28;20130;-79
2023/08/31 04:40:16;;;;;;;9.40;3.85;;;16.70;99.90;;;;;;4964061;28;20462;-78
2023/08/31 04:42:43;;;;;;;6.32;3.38;;;16.80;99.90;;;;;;4961887;28;20035;-79
2023/08/31 04:45:12;;;;;;;6.90;3.47;;;16.80;99.90;;;;;;4954411;28;20142;-79
2023/08/31 04:47:39;;;;;;;6.90;3.38;;;16.80;99.90;;;;;;4961611;28;20057;-79
2023/08/31 04:50:07;;;;;;;7.95;4.22;;;16.80;99.90;;;;;;4959110;28;20058;-79
2023/08/31 04:52:34;;;;;;;4.88;2.88;;;16.90;99.90;;;;;;4959454;28;20533;-79
2023/08/31 04:55:03;;;;;;;6.60;3.65;;;16.90;99.90;;;;;;4960088;28;20054;-79
2023/08/31 04:57:30;;;;;;;6.53;3.85;;;16.90;99.90;;;;;;4946885;28;20078;-79
2023/08/31 04:59:57;;;;;;;7.25;3.53;;;16.90;99.90;;;;;;4951385;28;20054;-79
2023/08/31 05:02:24;;;;;;;6.25;3.58;;;16.90;99.90;;;;;;4958646;28;20093;-79
2023/08/31 05:04:52;;;;;;;6.38;3.80;;;17.00;99.90;;;;;;4943767;28;24328;-80
2023/08/31 05:07:19;;;;;;;6.78;3.20;;;16.90;99.90;;;;;;4973027;28;20057;-80
2023/08/31 05:09:46;;;;;;;5.88;3.17;;;17.00;99.90;;;;;;4958590;28;22588;-80
2023/08/31 05:12:13;;;;;;;5.07;3.53;;;17.00;99.90;;;;;;4960051;28;20063;-80
2023/08/31 05:14:40;;;;;;;7.00;3.53;;;17.00;99.90;;;;;;4953957;28;20043;-80
2023/08/31 05:17:07;;;;;;;6.70;3.88;;;17.10;99.90;;;;;;4968479;28;20184;-80
2023/08/31 05:19:34;;;;;;;10.88;3.20;;;17.10;99.90;;;;;;4960712;28;20081;-81
2023/08/31 05:22:01;;;;;;;5.75;3.28;;;17.20;99.90;;;;;;4954812;28;20145;-81
2023/08/31 05:24:28;;;;;;;6.57;3.63;;;17.20;99.90;;;;;;4955749;28;20043;-80
2023/08/31 05:26:56;;;;;;;6.10;3.30;;;17.20;99.90;;;;;;4974359;28;20403;-81
2023/08/31 05:29:23;;;;;;;5.32;3.30;;;17.20;99.90;;;;;;4977351;28;20043;-81
2023/08/31 05:31:52;;;;;;;6.63;3.30;;;17.30;99.90;;;;;;4961522;28;20458;-81
2023/08/31 05:34:24;;;;;;;6.43;3.28;;;17.30;99.90;;;;;;4950869;28;20058;-82
2023/08/31 05:36:56;;;;;;;8.15;3.67;;;17.40;99.90;;;;;;4960146;28;20178;-82
2023/08/31 05:39:29;;;;;;;8.27;3.55;;;17.40;99.90;;;;;;4957201;28;20042;-81
2023/08/31 05:41:56;;;;;;;6.05;3.35;;;17.40;99.90;;;;;;4951156;28;20043;-82
2023/08/31 05:44:24;;;;;;;4.53;2.88;;;17.30;99.90;;;;;;4960583;28;20063;-83
2023/08/31 05:46:51;;;;;;;5.05;3.20;;;17.40;99.90;;;;;;4945501;28;20130;-82
2023/08/31 05:49:18;;;;;;;4.43;3.15;;;17.50;99.90;;;;;;4966433;28;20046;-83
2023/08/31 05:51:45;;;;;;;3.97;2.45;;;17.60;99.90;;;;;;4962782;28;20967;-83
2023/08/31 05:54:13;;;;;;;4.32;2.80;;;17.60;99.90;;;;;;4960084;28;20046;-83
2023/08/31 05:56:40;;;;;;;5.70;2.97;;;17.60;99.90;;;;;;4944564;28;20098;-83
2023/08/31 05:59:07;;;;;;;4.03;2.70;;;17.80;99.90;;;;;;4973972;28;20818;-81
2023/08/31 06:01:38;;;;;;;5.30;3.08;;;17.90;99.90;;;;;;4951336;28;20070;-84
2023/08/31 06:04:05;;;;;;;4.93;3.17;;;18.00;99.90;;;;;;4954277;28;20070;-83
2023/08/31 06:06:33;;;;;;;5.40;3.38;;;18.10;99.90;;;;;;4943470;28;20039;-81
2023/08/31 06:09:00;;;;;;;4.50;2.70;;;18.10;99.90;;;;;;4954803;28;20043;-83
2023/08/31 06:11:27;;;;;;;5.13;2.80;;;18.20;99.90;;;;;;4946411;28;20518;-84
2023/08/31 06:13:54;;;;;;;4.32;2.53;;;18.40;99.90;;;;;;4954958;28;20545;-84
2023/08/31 06:16:23;;;;;;;4.45;2.50;;;18.60;99.90;;;;;;4975443;28;20379;-83
2023/08/31 06:18:51;;;;;;;3.55;2.33;;;18.50;99.90;;;;;;4957090;28;20062;-84
2023/08/31 06:21:18;;;;;;;4.50;2.55;;;18.50;99.90;;;;;;4956444;28;20075;-80
2023/08/31 06:23:45;;;;;;;3.38;2.17;;;18.40;99.90;;;;;;4967474;28;20053;-84
2023/08/31 06:26:12;;;;;;;3.53;2.22;;;18.50;99.90;;;;;;4955464;28;20690;-83
2023/08/31 06:28:39;;;;;;;5.47;2.75;;;18.50;99.90;;;;;;4959728;28;20394;-82
2023/08/31 06:31:06;;;;;;;4.90;2.70;;;18.50;99.90;;;;;;4950669;28;20071;-84
2023/08/31 06:33:34;;;;;;;4.00;2.40;;;18.50;99.90;;;;;;4961283;28;20057;-84
2023/08/31 06:36:01;;;;;;;5.78;2.58;;;18.60;99.90;;;;;;4960325;28;20061;-83
2023/08/31 06:38:28;;;;;;;5.68;2.65;;;18.50;99.90;;;;;;4956575;28;22913;-83
2023/08/31 06:40:58;;;;;;;3.88;2.58;;;18.70;99.90;;;;;;4961967;28;20066;-84
2023/08/31 06:43:27;;;;;;;3.75;2.15;;;19.10;99.90;;;;;;4947311;28;20063;-81
2023/08/31 06:45:54;;;;;;;6.05;2.75;;;19.20;99.90;;;;;;4957993;28;20051;-83
2023/08/31 06:48:28;;;;;;;5.32;2.60;;;19.60;99.90;;;;;;4945165;28;20065;-83
2023/08/31 06:50:55;;;;;;;3.80;2.42;;;19.80;99.90;;;;;;4978193;28;20619;-85
2023/08/31 06:53:23;;;;;;;3.83;2.30;;;20.00;99.90;;;;;;4962853;28;20168;-84
2023/08/31 06:55:50;;;;;;;3.70;2.42;;;19.80;99.90;;;;;;4962600;28;20105;-81
2023/08/31 06:58:17;;;;;;;5.60;2.20;;;19.80;99.90;;;;;;4961603;28;20051;-81
2023/08/31 07:00:45;;;;;;;3.78;2.40;;;19.60;99.90;;;;;;4960994;28;20273;-85
2023/08/31 07:03:12;;;;;;;3.08;2.15;;;19.40;99.90;;;;;;4960122;28;20047;-83
2023/08/31 07:05:43;;;;;;;4.22;2.03;;;19.40;99.90;;;;;;4945801;28;20047;-84
2023/08/31 07:08:10;;;;;;;2.22;1.98;;;19.30;99.90;;;;;;4981916;28;20163;-85
2023/08/31 07:10:38;;;;;;;2.70;1.83;;;19.30;99.90;;;;;;4964042;28;20047;-85
2023/08/31 07:13:05;;;;;;;4.13;2.05;;;19.40;99.90;;;;;;4961644;28;20055;-84
2023/08/31 07:15:32;;;;;;;5.22;2.17;;;19.40;99.90;;;;;;4962502;28;20431;-84
2023/08/31 07:18:00;;;;;;;2.85;2.20;;;19.40;99.90;;;;;;4960159;28;20137;-84
2023/08/31 07:20:27;;;;;;;2.25;1.67;;;19.40;99.90;;;;;;4963700;28;20410;-85
2023/08/31 07:22:54;;;;;;;3.75;2.20;;;19.60;99.90;;;;;;4959482;28;20491;-81
2023/08/31 07:25:22;;;;;;;4.07;1.83;;;19.70;99.90;;;;;;4957882;28;20137;-85
2023/08/31 07:27:49;;;;;;;2.42;1.80;;;19.70;99.90;;;;;;4947362;28;22722;-85
2023/08/31 07:30:16;;;;;;;5.50;1.95;;;19.80;99.90;;;;;;4951451;28;20060;-84
2023/08/31 07:32:43;;;;;;;2.83;2.22;;;19.70;99.90;;;;;;4949666;28;20449;-85
2023/08/31 07:35:10;;;;;;;3.55;1.77;;;19.80;99.90;;;;;;4961767;28;20047;-84
2023/08/31 07:37:37;;;;;;;3.45;2.55;;;19.80;99.90;;;;;;4956217;28;20155;-84
2023/08/31 07:40:09;;;;;;;2.72;2.00;;;20.00;99.90;;;;;;4953317;28;20525;-85
2023/08/31 07:42:37;;;;;;;3.50;2.15;;;20.30;99.90;;;;;;4956678;28;20051;-81
2023/08/31 07:45:08;;;;;;;5.55;2.15;;;20.50;99.90;;;;;;4978739;28;20054;-77
2023/08/31 07:47:35;;;;;;;3.60;1.90;;;20.40;99.90;;;;;;4958187;28;20035;-81
2023/08/31 07:50:03;;;;;;;3.80;2.00;;;20.50;99.90;;;;;;4955303;28;22234;-81
2023/08/31 07:52:30;;;;;;;2.78;1.50;;;20.60;99.80;;;;;;4966500;28;20051;-84
2023/08/31 07:54:57;;;;;;;4.15;1.88;;;20.70;99.10;;;;;;4974230;28;20047;-84
2023/08/31 07:57:24;;;;;;;3.03;1.75;;;20.70;99.00;;;;;;4964165;28;20053;-81
2023/08/31 07:59:52;;;;;;;3.75;2.95;;;20.70;98.60;;;;;;4950427;28;20151;-82
2023/08/31 08:02:20;;;;;;;3.60;2.40;;;20.50;98.30;;;;;;4951866;28;20573;-78
2023/08/31 08:04:47;;;;;;;3.90;2.22;;;20.50;98.60;;;;;;4972027;28;20052;-81
2023/08/31 08:07:14;;;;;;;3.17;2.33;;;20.50;99.60;;;;;;4963096;28;20039;-84
2023/08/31 08:09:41;;;;;;;3.95;2.10;;;20.50;99.70;;;;;;4961656;28;20039;-82
2023/08/31 08:12:08;;;;;;;6.25;2.20;;;20.60;99.40;;;;;;4973659;28;20043;-80
2023/08/31 08:14:35;;;;;;;4.53;2.33;;;20.70;98.20;;;;;;4960153;28;20070;-85
2023/08/31 08:17:03;;;;;;;3.67;1.85;;;20.80;97.70;;;;;;4957776;28;20101;-84
2023/08/31 08:19:30;;;;;;;3.10;1.58;;;20.90;98.40;;;;;;4956953;28;20051;-83
2023/08/31 08:21:57;;;;;;;2.28;1.60;;;20.90;97.60;;;;;;4973986;28;20105;-82
2023/08/31 08:24:24;;;;;;;1.92;1.30;;;20.90;97.50;;;;;;4950447;28;20075;-84
2023/08/31 08:26:51;;;;;;;4.15;1.63;;;20.90;97.30;;;;;;4947472;28;20051;-84
2023/08/31 08:29:18;;;;;;;3.45;1.55;;;21.00;96.70;;;;;;4958918;28;20055;-82
2023/08/31 08:31:45;;;;;;;4.30;2.05;;;21.20;96.20;;;;;;4965728;28;20237;-84
2023/08/31 08:34:13;;;;;;;2.15;1.80;;;21.40;96.70;;;;;;4962117;28;20650;-82
2023/08/31 08:36:40;;;;;;;2.60;1.20;;;21.50;96.50;;;;;;4958876;28;20051;-83
2023/08/31 08:39:07;;;;;;;3.45;1.77;;;21.70;94.70;;;;;;4960861;28;20128;-80
2023/08/31 08:41:36;;;;;;;3.15;1.75;;;21.70;94.20;;;;;;4962371;28;20078;-81
2023/08/31 08:44:06;;;;;;;2.75;1.70;;;21.70;93.30;;;;;;4964565;28;20061;-81
2023/08/31 08:46:34;;;;;;;2.95;1.90;;;21.50;93.90;;;;;;4949055;28;20133;-83
2023/08/31 08:49:03;;;;;;;4.03;2.60;;;21.50;93.70;;;;;;4959611;28;20035;-81
2023/08/31 08:51:31;;;;;;;3.70;2.20;;;21.60;94.00;;;;;;4952299;28;20138;-83
2023/08/31 08:54:02;;;;;;;4.22;2.20;;;21.60;94.50;;;;;;4959848;28;20526;-82
2023/08/31 08:56:29;;;;;;;3.35;1.70;;;21.80;94.30;;;;;;4959862;28;20054;-81
2023/08/31 08:58:56;;;;;;;2.60;2.10;;;22.00;93.70;;;;;;4959868;28;20053;-84
2023/08/31 09:01:25;;;;;;;3.00;2.10;;;22.00;93.60;;;;;;4963628;28;20063;-84
2023/08/31 09:03:52;;;;;;;3.05;1.60;;;21.80;93.00;;;;;;4950320;28;20086;-83
2023/08/31 09:06:20;;;;;;;2.38;1.52;;;21.90;93.80;;;;;;4958643;28;20102;-83
2023/08/31 09:08:57;;;;;;;4.72;1.80;;;21.90;93.60;;;;;;4955444;28;20529;-85
2023/08/31 09:11:26;;;;;;;2.25;1.40;;;21.90;94.60;;;;;;4962876;28;20070;-82
2023/08/31 09:13:56;;;;;;;2.40;1.40;;;21.80;93.60;;;;;;4978900;28;20141;-83
2023/08/31 09:16:28;;;;;;;3.45;1.50;;;21.80;93.90;;;;;;4960256;28;20053;-83
2023/08/31 09:18:56;;;;;;;2.45;1.30;;;21.60;93.80;;;;;;4958173;28;20055;-84
2023/08/31 09:21:40;;;;;;;2.53;1.67;;;21.70;94.20;;;;;;4957525;28;20061;-83
2023/08/31 09:24:10;;;;;;;5.32;1.70;;;21.60;94.00;;;;;;4958342;28;20038;-83
2023/08/31 09:26:43;;;;;;;3.13;1.33;;;21.70;94.30;;;;;;4959197;28;20516;-81
2023/08/31 09:29:10;;;;;;;4.43;1.10;;;21.90;94.20;;;;;;4962221;28;20138;-80
2023/08/31 09:31:41;;;;;;;2.67;1.33;;;21.90;91.30;;;;;;4969094;28;20055;-77
2023/08/31 09:34:08;;;;;;;2.95;2.05;;;21.90;91.50;;;;;;4945513;28;20146;-82
2023/08/31 09:36:37;;;;;;;3.33;1.58;;;22.10;91.90;;;;;;4969972;28;20067;-81
2023/08/31 09:39:06;;;;;;;2.15;1.30;;;22.10;91.10;;;;;;4951597;28;20141;-81
2023/08/31 09:41:36;;;;;;;2.33;1.48;;;22.10;91.70;;;;;;4957160;28;20133;-80
2023/08/31 09:44:19;;;;;;;2.85;1.30;;;22.10;91.90;;;;;;4945898;28;20066;-84
2023/08/31 09:46:46;;;;;;;2.00;1.00;;;22.10;92.10;;;;;;4957239;28;20043;-83
2023/08/31 09:49:16;;;;;;;3.63;0.98;;;22.00;91.90;;;;;;4960270;28;20039;-81
2023/08/31 09:51:48;;;;;;;2.22;1.33;;;21.90;90.20;;;;;;4956867;28;20137;-78
2023/08/31 09:54:17;;;;;;;2.30;0.85;;;21.90;88.40;;;;;;4961635;28;20455;-82
2023/08/31 09:56:47;;;;;;;1.52;1.40;;;22.00;91.00;;;;;;4971362;28;20109;-78
2023/08/31 09:59:30;;;;;;;1.63;0.88;;;22.00;89.90;;;;;;5087876;27;20455;-80
2023/08/31 10:01:58;;;;;;;1.08;0.80;;;22.00;89.40;;;;;;5069854;28;20044;-79
2023/08/31 10:04:25;;;;;;;1.00;0.80;;;22.00;88.10;;;;;;5052047;28;20135;-84
2023/08/31 10:06:52;;;;;;;2.92;1.08;;;22.00;86.80;;;;;;5043176;28;20064;-80
2023/08/31 10:09:20;;;;;;;1.83;0.68;;;22.10;88.80;;;;;;5038801;28;20049;-83
2023/08/31 10:11:48;;;;;;;1.75;0.70;;;22.10;88.10;;;;;;5039261;28;20125;-84
2023/08/31 10:14:17;;;;;;;1.23;0.60;;;22.10;87.00;;;;;;5062351;28;20097;-80
2023/08/31 10:16:45;;;;;;;1.50;0.77;;;22.10;86.90;;;;;;5046568;28;20183;-81
2023/08/31 10:19:12;;;;;;;1.40;0.77;;;22.10;87.30;;;;;;5054161;28;20187;-82
2023/08/31 10:21:41;;;;;;;1.60;0.70;;;22.10;88.40;;;;;;5051264;28;20135;-82
2023/08/31 10:24:08;;;;;;;1.23;0.70;;;22.10;87.70;;;;;;5043603;28;20061;-84
2023/08/31 10:26:35;;;;;;;1.30;0.93;;;22.10;88.10;;;;;;5062619;28;20110;-83
2023/08/31 10:29:04;;;;;;;1.45;0.73;;;22.00;87.40;;;;;;5032990;28;20045;-82
2023/08/31 10:31:34;;;;;;;1.48;0.63;;;22.10;87.80;;;;;;5050319;28;20068;-80
2023/08/31 10:34:04;;;;;;;1.60;0.73;;;22.30;86.20;;;;;;5034214;28;20061;-84
2023/08/31 10:36:44;;;;;;;1.30;0.80;;;22.20;85.70;;;;;;5062273;28;20071;-80
2023/08/31 10:39:21;;;;;;;1.92;0.90;;;22.50;85.10;;;;;;5059571;28;20051;-82
2023/08/31 10:41:54;;;;;;;1.80;0.93;;;22.40;83.90;;;;;;5055616;28;20087;-83
2023/08/31 10:44:23;;;;;;;2.40;1.17;;;22.40;84.50;;;;;;5041857;28;20041;-82
2023/08/31 10:46:52;;;;;;;2.40;0.60;;;22.40;85.20;;;;;;5053947;28;20114;-84
2023/08/31 10:49:21;;;;;;;1.10;0.80;;;22.30;84.40;;;;;;5037920;28;20040;-81
2023/08/31 10:51:57;;;;;;;1.25;0.60;;;22.30;84.20;;;;;;5050124;28;20060;-82
2023/08/31 10:54:34;;;;;;;1.45;0.80;;;22.40;84.90;;;;;;5050514;28;20098;-84
2023/08/31 10:57:06;;;;;;;1.67;0.90;;;22.50;82.80;;;;;;5048891;28;20041;-80
2023/08/31 10:59:49;;;;;;;2.53;0.85;;;22.50;82.30;;;;;;5050827;28;20045;-82
2023/08/31 11:02:37;;;;;;;2.53;0.90;;;22.50;81.70;;;;;;5039443;28;20044;-82
2023/08/31 11:05:12;;;;;;;3.53;0.90;;;22.60;82.10;;;;;;5064071;28;20056;-81
2023/08/31 11:07:44;;;;;;;1.85;1.08;;;22.70;82.30;;;;;;5036588;28;20060;-79
2023/08/31 11:10:16;;;;;;;2.72;1.35;;;22.70;84.10;;;;;;5025437;28;20519;-78
2023/08/31 11:12:46;;;;;;;1.45;0.80;;;22.80;86.20;;;;;;5045460;28;20053;-77
2023/08/31 11:15:15;;;;;;;1.88;1.05;;;22.70;80.40;;;;;;5044106;28;20072;-81
2023/08/31 11:17:42;;;;;;;4.53;1.52;;;22.70;79.10;;;;;;5039512;28;20049;-79
2023/08/31 11:20:21;;;;;;;1.95;0.85;;;22.60;79.40;;;;;;5019230;28;20042;-78
2023/08/31 11:22:50;;;;;;;2.38;1.20;;;22.50;83.20;;;;;;5054238;28;20037;-80
2023/08/31 11:25:18;;;;;;;0.95;0.77;;;22.50;85.20;;;;;;5041157;28;20138;-79
2023/08/31 11:27:59;;;;;;;1.80;0.98;;;22.40;83.40;;;;;;5033562;28;20053;-83
2023/08/31 11:30:34;;;;;;;3.85;1.20;;;22.40;86.10;;;;;;5027001;28;20535;-81
2023/08/31 11:33:08;;;;;;;1.88;1.50;;;22.50;85.40;;;;;;5037519;28;20057;-83
2023/08/31 11:35:39;;;;;;;3.92;1.30;;;22.50;87.30;;;;;;5034681;28;20127;-81
2023/08/31 11:38:07;;;;;;;3.25;1.30;;;22.60;88.50;;;;;;5029023;28;20057;-83
2023/08/31 11:40:35;;;;;;;3.50;1.05;;;22.70;88.70;;;;;;5037144;28;22756;-80
2023/08/31 11:43:04;;;;;;;1.58;0.88;;;22.70;87.30;;;;;;5028122;28;20037;-81
2023/08/31 11:45:32;;;;;;;1.90;0.63;;;22.70;87.40;;;;;;5026649;28;20095;-79
2023/08/31 11:47:59;;;;;;;2.38;0.93;;;22.80;86.60;;;;;;5038296;28;20125;-80
2023/08/31 11:50:28;;;;;;;1.60;0.73;;;22.70;86.60;;;;;;5043980;28;20053;-80
2023/08/31 11:52:55;;;;;;;1.88;0.60;;;22.60;83.10;;;;;;5025106;28;20041;-79
2023/08/31 11:55:23;;;;;;;1.95;0.57;;;22.80;85.00;;;;;;5041240;28;20049;-79
2023/08/31 11:57:54;;;;;;;1.65;0.60;;;22.70;83.20;;;;;;5019329;28;20062;-81
2023/08/31 12:00:22;;;;;;;4.05;0.73;;;22.70;83.50;;;;;;5041722;28;20128;-81
2023/08/31 12:03:00;;;;;;;3.03;0.80;;;22.60;82.10;;;;;;5034767;28;20053;-80
2023/08/31 12:05:28;;;;;;;2.05;0.50;;;22.50;81.40;;;;;;5032251;28;20045;-80
2023/08/31 12:07:55;;;;;;;1.10;0.73;;;22.60;80.90;;;;;;5020749;28;20041;-81
2023/08/31 12:10:26;;;;;;;1.77;0.77;;;22.70;82.70;;;;;;5039777;28;20040;-81
2023/08/31 12:13:07;;;;;;;2.63;0.90;;;22.90;83.90;;;;;;5036341;28;21018;-80
2023/08/31 12:15:34;;;;;;;2.72;1.02;;;22.90;83.00;;;;;;5035305;28;20076;-82
2023/08/31 12:18:33;;;;;;;1.80;0.88;;;23.00;84.20;;;;;;5025465;28;20045;-81
2023/08/31 12:21:01;;;;;;;2.00;0.60;;;23.00;83.50;;;;;;5037247;28;20045;-80
2023/08/31 12:23:28;;;;;;;1.02;0.50;;;23.00;82.80;;;;;;5018024;28;20128;-83
2023/08/31 12:25:55;;;;;;;1.70;0.70;;;22.90;82.90;;;;;;5022446;28;20107;-82
2023/08/31 12:28:23;;;;;;;2.40;0.85;;;23.00;84.50;;;;;;5025794;28;20132;-82
2023/08/31 12:30:53;;;;;;;2.80;0.90;;;23.20;85.80;;;;;;5034669;28;20144;-81
2023/08/31 12:33:21;;;;;;;1.08;0.70;;;23.30;84.70;;;;;;5024989;28;20135;-79
2023/08/31 12:35:48;;;;;;;2.25;0.70;;;23.20;80.90;;;;;;5034316;28;20081;-79
2023/08/31 12:38:16;;;;;;;1.80;1.02;;;23.10;81.20;;;;;;5035129;28;20037;-83
2023/08/31 12:40:43;;;;;;;1.90;0.90;;;23.10;82.10;;;;;;5036176;28;20115;-81
2023/08/31 12:43:10;;;;;;;1.90;0.85;;;23.00;81.70;;;;;;5034376;28;20136;-81
2023/08/31 12:45:37;;;;;;;1.23;0.73;;;23.00;81.40;;;;;;5032953;28;20127;-80
2023/08/31 12:48:05;;;;;;;3.03;0.70;;;23.00;81.60;;;;;;5028959;28;20048;-82
2023/08/31 12:50:33;;;;;;;1.40;0.73;;;23.20;83.20;;;;;;5038254;28;20514;-83
2023/08/31 12:53:00;;;;;;;1.58;0.60;;;23.20;82.10;;;;;;5035705;28;20049;-82
2023/08/31 12:55:27;;;;;;;1.48;0.80;;;23.20;83.00;;;;;;5019041;28;20047;-79
2023/08/31 12:57:54;;;;;;;1.48;0.90;;;23.00;79.60;;;;;;5033408;28;20630;-81